createdAt,value
2023-03-03T00:00:13.452Z,0
2023-03-03T00:01:13.472Z,0
2023-03-03T00:02:13.800Z,0
2023-03-03T00:03:13.766Z,0
2023-03-03T00:04:16.277Z,0
2023-03-03T00:05:13.437Z,0
2023-03-03T00:06:13.484Z,0
2023-03-03T00:07:13.526Z,0
2023-03-03T00:08:13.593Z,0
2023-03-03T00:09:13.457Z,0
2023-03-03T00:10:16.517Z,0
2023-03-03T00:11:13.444Z,0
2023-03-03T00:12:13.473Z,0
2023-03-03T00:13:13.466Z,0
2023-03-03T00:14:13.466Z,0
2023-03-03T00:15:16.290Z,0
2023-03-03T00:16:13.923Z,0
2023-03-03T00:17:13.588Z,0
2023-03-03T00:18:14.544Z,0
2023-03-03T00:19:13.498Z,0
2023-03-03T00:20:13.452Z,0
2023-03-03T00:21:16.279Z,0
2023-03-03T00:22:13.490Z,0
2023-03-03T00:23:13.475Z,0
2023-03-03T00:24:13.490Z,0
2023-03-03T00:25:13.464Z,0
2023-03-03T00:26:14.501Z,0
2023-03-03T00:27:13.525Z,0
2023-03-03T00:28:13.483Z,0
2023-03-03T00:29:13.513Z,0
2023-03-03T00:30:13.546Z,0
2023-03-03T00:31:16.576Z,0
2023-03-03T00:32:13.740Z,0
2023-03-03T00:33:13.552Z,0
2023-03-03T00:34:13.608Z,0
2023-03-03T00:35:13.528Z,0
2023-03-03T00:36:13.503Z,0
2023-03-03T00:37:16.552Z,0
2023-03-03T00:38:13.478Z,0
2023-03-03T00:39:13.487Z,0
2023-03-03T00:40:13.546Z,0
2023-03-03T00:41:13.494Z,0
2023-03-03T00:42:14.426Z,0
2023-03-03T00:43:13.503Z,0
2023-03-03T00:44:13.167Z,0
2023-03-03T00:45:13.537Z,0
2023-03-03T00:46:13.626Z,0
2023-03-03T00:47:13.564Z,0
2023-03-03T00:48:13.567Z,0
2023-03-03T00:49:13.547Z,0
2023-03-03T00:50:13.584Z,0
2023-03-03T00:51:13.790Z,0
2023-03-03T00:52:13.598Z,0
2023-03-03T00:53:16.672Z,0
2023-03-03T00:54:13.535Z,0
2023-03-03T00:55:13.554Z,0
2023-03-03T00:56:13.492Z,0
2023-03-03T00:57:13.772Z,0
2023-03-03T00:58:13.563Z,0
2023-03-03T00:59:13.533Z,0
2023-03-03T01:00:13.406Z,0
2023-03-03T01:01:13.538Z,0
2023-03-03T01:02:13.650Z,0
2023-03-03T01:03:13.553Z,0
2023-03-03T01:04:16.363Z,0
2023-03-03T01:05:13.563Z,0
2023-03-03T01:06:13.657Z,0
2023-03-03T01:07:13.609Z,0
2023-03-03T01:08:13.587Z,0
2023-03-03T01:09:16.568Z,0
2023-03-03T01:10:13.537Z,0
2023-03-03T01:11:13.545Z,0
2023-03-03T01:12:13.609Z,0
2023-03-03T01:13:13.600Z,0
2023-03-03T01:14:28.255Z,0
2023-03-03T01:15:13.586Z,0
2023-03-03T01:16:13.852Z,0
2023-03-03T01:17:13.611Z,0
2023-03-03T01:18:13.546Z,0
2023-03-03T01:19:13.574Z,0
2023-03-03T01:20:16.716Z,0
2023-03-03T01:21:13.566Z,0
2023-03-03T01:22:13.632Z,0
2023-03-03T01:23:13.645Z,0
2023-03-03T01:24:13.570Z,0
2023-03-03T01:25:16.570Z,0
2023-03-03T01:26:13.590Z,0
2023-03-03T01:27:13.657Z,0
2023-03-03T01:28:13.568Z,0
2023-03-03T01:29:13.596Z,0
2023-03-03T01:30:13.660Z,0
2023-03-03T01:31:18.134Z,0
2023-03-03T01:32:13.969Z,0
2023-03-03T01:33:13.603Z,0
2023-03-03T01:34:13.597Z,0
2023-03-03T01:35:13.595Z,0
2023-03-03T01:36:16.787Z,0
2023-03-03T01:37:13.609Z,0
2023-03-03T01:38:13.683Z,0
2023-03-03T01:39:13.643Z,0
2023-03-03T01:40:13.612Z,0
2023-03-03T01:41:13.745Z,0
2023-03-03T01:42:16.391Z,0
2023-03-03T01:43:13.615Z,0
2023-03-03T01:44:13.603Z,0
2023-03-03T01:45:13.704Z,0
2023-03-03T01:46:13.879Z,0
2023-03-03T01:47:16.539Z,0
2023-03-03T01:48:13.756Z,0
2023-03-03T01:49:13.598Z,0
2023-03-03T01:50:13.594Z,0
2023-03-03T01:51:13.623Z,0
2023-03-03T01:52:13.652Z,0
2023-03-03T01:53:16.654Z,0
2023-03-03T01:54:13.732Z,0
2023-03-03T01:55:13.725Z,0
2023-03-03T01:56:13.608Z,0
2023-03-03T01:57:13.649Z,0
2023-03-03T01:58:22.502Z,0
2023-03-03T01:59:13.611Z,0
2023-03-03T02:00:13.673Z,0
2023-03-03T02:01:14.682Z,0
2023-03-03T02:02:13.925Z,0
2023-03-03T02:03:13.861Z,0
2023-03-03T02:04:16.754Z,0
2023-03-03T02:05:16.737Z,0
2023-03-03T02:06:13.964Z,0
2023-03-03T02:07:13.713Z,0
2023-03-03T02:08:13.647Z,0
2023-03-03T02:09:14.743Z,0
2023-03-03T02:10:13.695Z,0
2023-03-03T02:11:13.688Z,0
2023-03-03T02:12:13.727Z,0
2023-03-03T02:13:13.645Z,0
2023-03-03T02:14:13.685Z,0
2023-03-03T02:15:16.371Z,0
2023-03-03T02:16:13.990Z,0
2023-03-03T02:17:13.723Z,0
2023-03-03T02:18:13.664Z,0
2023-03-03T02:19:13.714Z,0
2023-03-03T02:20:16.840Z,0
2023-03-03T02:21:13.654Z,0
2023-03-03T02:22:13.711Z,0
2023-03-03T02:23:13.491Z,0
2023-03-03T02:24:13.787Z,0
2023-03-03T02:25:13.779Z,0
2023-03-03T02:26:16.695Z,0
2023-03-03T02:27:13.718Z,0
2023-03-03T02:28:13.661Z,0
2023-03-03T02:29:13.659Z,0
2023-03-03T02:30:13.724Z,0
2023-03-03T02:31:16.892Z,0
2023-03-03T02:32:13.815Z,0
2023-03-03T02:33:13.714Z,0
2023-03-03T02:34:13.685Z,0
2023-03-03T02:35:13.677Z,0
2023-03-03T02:36:13.683Z,0
2023-03-03T02:37:16.861Z,0
2023-03-03T02:38:13.668Z,0
2023-03-03T02:39:13.750Z,0
2023-03-03T02:40:13.736Z,0
2023-03-03T02:41:13.724Z,0
2023-03-03T02:42:16.546Z,0
2023-03-03T02:43:13.707Z,0
2023-03-03T02:44:13.708Z,0
2023-03-03T02:45:13.711Z,0
2023-03-03T02:46:13.927Z,0
2023-03-03T02:47:13.735Z,0
2023-03-03T02:48:16.887Z,0
2023-03-03T02:49:13.691Z,0
2023-03-03T02:50:13.729Z,0
2023-03-03T02:51:13.741Z,0
2023-03-03T02:52:13.736Z,0
2023-03-03T02:53:14.812Z,0
2023-03-03T02:54:13.704Z,0
2023-03-03T02:55:13.713Z,0
2023-03-03T02:56:13.780Z,0
2023-03-03T02:57:13.924Z,0
2023-03-03T02:58:16.648Z,0
2023-03-03T02:59:13.746Z,0
2023-03-03T03:00:13.726Z,0
2023-03-03T03:01:14.227Z,0
2023-03-03T03:02:13.749Z,0
2023-03-03T03:03:13.734Z,0
2023-03-03T03:04:17.923Z,0
2023-03-03T03:05:13.778Z,0
2023-03-03T03:06:13.724Z,0
2023-03-03T03:07:13.787Z,0
2023-03-03T03:08:13.744Z,0
2023-03-03T03:09:16.615Z,0
2023-03-03T03:10:13.729Z,0
2023-03-03T03:11:13.771Z,0
2023-03-03T03:12:13.788Z,0
2023-03-03T03:13:13.812Z,0
2023-03-03T03:14:13.801Z,0
2023-03-03T03:15:13.767Z,0
2023-03-03T03:16:13.984Z,0
2023-03-03T03:17:13.767Z,0
2023-03-03T03:18:13.725Z,0
2023-03-03T03:19:13.765Z,0
2023-03-03T03:20:16.550Z,0
2023-03-03T03:21:13.744Z,0
2023-03-03T03:22:13.801Z,0
2023-03-03T03:23:13.792Z,0
2023-03-03T03:24:13.817Z,0
2023-03-03T03:25:13.758Z,0
2023-03-03T03:26:13.757Z,0
2023-03-03T03:27:13.794Z,0
2023-03-03T03:28:13.806Z,0
2023-03-03T03:29:13.889Z,0
2023-03-03T03:30:13.831Z,0
2023-03-03T03:31:16.881Z,0
2023-03-03T03:32:14.019Z,0
2023-03-03T03:33:13.855Z,0
2023-03-03T03:34:13.782Z,0
2023-03-03T03:35:13.781Z,0
2023-03-03T03:36:16.912Z,0
2023-03-03T03:37:13.819Z,0
2023-03-03T03:38:13.757Z,0
2023-03-03T03:39:13.932Z,0
2023-03-03T03:40:13.790Z,0
2023-03-03T03:41:13.782Z,0
2023-03-03T03:42:17.362Z,0
2023-03-03T03:43:13.939Z,0
2023-03-03T03:44:13.821Z,0
2023-03-03T03:45:13.857Z,0
2023-03-03T03:46:14.326Z,0
2023-03-03T03:47:16.842Z,0
2023-03-03T03:48:13.842Z,0
2023-03-03T03:49:13.818Z,0
2023-03-03T03:50:13.862Z,0
2023-03-03T03:51:13.778Z,0
2023-03-03T03:52:16.659Z,0
2023-03-03T03:53:17.921Z,0
2023-03-03T03:54:13.819Z,0
2023-03-03T03:55:13.899Z,0
2023-03-03T03:56:13.824Z,0
2023-03-03T03:57:13.934Z,0
2023-03-03T03:58:16.853Z,0
2023-03-03T03:59:13.823Z,0
2023-03-03T04:00:13.842Z,0
2023-03-03T04:01:13.870Z,0
2023-03-03T04:02:14.652Z,0
2023-03-03T04:03:18.385Z,0
2023-03-03T04:04:14.005Z,0
2023-03-03T04:05:13.831Z,0
2023-03-03T04:06:13.865Z,0
2023-03-03T04:07:16.271Z,0
2023-03-03T04:08:13.907Z,0
2023-03-03T04:09:16.658Z,0
2023-03-03T04:10:13.830Z,0
2023-03-03T04:11:13.848Z,0
2023-03-03T04:12:13.887Z,0
2023-03-03T04:13:13.887Z,0
2023-03-03T04:14:16.663Z,0
2023-03-03T04:15:13.885Z,0
2023-03-03T04:16:14.372Z,0
2023-03-03T04:17:13.880Z,0
2023-03-03T04:18:13.974Z,0
2023-03-03T04:19:13.847Z,0
2023-03-03T04:20:17.005Z,0
2023-03-03T04:21:13.855Z,0
2023-03-03T04:22:13.927Z,0
2023-03-03T04:23:13.898Z,0
2023-03-03T04:24:13.974Z,0
2023-03-03T04:25:16.938Z,0
2023-03-03T04:26:13.879Z,0
2023-03-03T04:27:14.082Z,0
2023-03-03T04:28:14.968Z,0
2023-03-03T04:29:13.861Z,0
2023-03-03T04:30:13.889Z,0
2023-03-03T04:31:16.987Z,0
2023-03-03T04:32:14.087Z,0
2023-03-03T04:33:13.910Z,0
2023-03-03T04:34:13.917Z,0
2023-03-03T04:35:18.091Z,0
2023-03-03T04:36:16.653Z,0
2023-03-03T04:37:13.880Z,0
2023-03-03T04:38:13.915Z,0
2023-03-03T04:39:13.952Z,0
2023-03-03T04:40:13.974Z,0
2023-03-03T04:41:13.894Z,0
2023-03-03T04:42:14.047Z,0
2023-03-03T04:43:13.948Z,0
2023-03-03T04:44:13.910Z,0
2023-03-03T04:45:13.914Z,0
2023-03-03T04:46:14.327Z,0
2023-03-03T04:47:16.648Z,0
2023-03-03T04:48:13.972Z,0
2023-03-03T04:49:19.451Z,0
2023-03-03T04:50:13.927Z,0
2023-03-03T04:51:13.915Z,0
2023-03-03T04:52:13.923Z,0
2023-03-03T04:53:16.799Z,0
2023-03-03T04:54:13.939Z,0
2023-03-03T04:55:17.124Z,0
2023-03-03T04:56:13.894Z,0
2023-03-03T04:57:14.046Z,0
2023-03-03T04:58:16.786Z,0
2023-03-03T04:59:13.922Z,0
2023-03-03T05:00:13.949Z,0
2023-03-03T05:01:13.897Z,0
2023-03-03T05:02:13.890Z,0
2023-03-03T05:03:14.019Z,0
2023-03-03T05:04:17.010Z,0
2023-03-03T05:05:14.002Z,0
2023-03-03T05:06:13.950Z,0
2023-03-03T05:07:13.924Z,0
2023-03-03T05:08:13.933Z,0
2023-03-03T05:09:16.757Z,0
2023-03-03T05:10:13.944Z,0
2023-03-03T05:11:13.965Z,0
2023-03-03T05:12:14.033Z,0
2023-03-03T05:13:13.963Z,0
2023-03-03T05:14:13.955Z,0
2023-03-03T05:15:16.992Z,0
2023-03-03T05:16:14.265Z,0
2023-03-03T05:17:13.930Z,0
2023-03-03T05:18:13.939Z,0
2023-03-03T05:19:13.938Z,0
2023-03-03T05:20:17.016Z,0
2023-03-03T05:21:14.068Z,0
2023-03-03T05:22:13.944Z,0
2023-03-03T05:23:13.963Z,0
2023-03-03T05:24:13.967Z,0
2023-03-03T05:25:16.745Z,0
2023-03-03T05:26:13.968Z,0
2023-03-03T05:27:13.965Z,0
2023-03-03T05:28:13.970Z,0
2023-03-03T05:29:13.982Z,0
2023-03-03T05:30:13.961Z,0
2023-03-03T05:31:17.176Z,0
2023-03-03T05:32:14.445Z,0
2023-03-03T05:33:13.984Z,0
2023-03-03T05:34:14.065Z,0
2023-03-03T05:35:13.994Z,0
2023-03-03T05:36:16.785Z,0
2023-03-03T05:37:13.800Z,0
2023-03-03T05:38:14.767Z,0
2023-03-03T05:39:13.965Z,0
2023-03-03T05:40:13.994Z,0
2023-03-03T05:41:13.995Z,0
2023-03-03T05:42:14.020Z,0
2023-03-03T05:43:14.117Z,0
2023-03-03T05:44:13.965Z,0
2023-03-03T05:45:13.981Z,0
2023-03-03T05:46:14.170Z,0
2023-03-03T05:47:16.867Z,0
2023-03-03T05:48:14.014Z,0
2023-03-03T05:49:14.012Z,0
2023-03-03T05:50:14.017Z,0
2023-03-03T05:51:14.100Z,0
2023-03-03T05:52:14.202Z,0
2023-03-03T05:53:14.077Z,0
2023-03-03T05:54:14.029Z,0
2023-03-03T05:55:14.029Z,0
2023-03-03T05:56:13.999Z,0
2023-03-03T05:57:14.015Z,0
2023-03-03T05:58:17.436Z,0
2023-03-03T05:59:14.010Z,0
2023-03-03T06:00:14.076Z,0
2023-03-03T06:01:14.025Z,0
2023-03-03T06:02:14.347Z,0
2023-03-03T06:03:17.605Z,0
2023-03-03T06:04:14.011Z,0
2023-03-03T06:05:14.037Z,0
2023-03-03T06:06:13.842Z,0
2023-03-03T06:07:14.041Z,0
2023-03-03T06:08:14.050Z,0
2023-03-03T06:09:16.986Z,0
2023-03-03T06:10:14.044Z,0
2023-03-03T06:11:14.071Z,0
2023-03-03T06:12:16.745Z,0
2023-03-03T06:13:14.066Z,0
2023-03-03T06:14:17.197Z,0
2023-03-03T06:15:14.327Z,0
2023-03-03T06:16:14.376Z,0
2023-03-03T06:17:14.020Z,0
2023-03-03T06:18:14.067Z,0
2023-03-03T06:19:15.593Z,0
2023-03-03T06:20:22.038Z,0
2023-03-03T06:21:14.033Z,0
2023-03-03T06:22:14.028Z,0
2023-03-03T06:23:14.104Z,0
2023-03-03T06:24:14.136Z,0
2023-03-03T06:25:18.182Z,0
2023-03-03T06:26:14.082Z,0
2023-03-03T06:27:14.074Z,0
2023-03-03T06:28:14.065Z,0
2023-03-03T06:29:15.773Z,0
2023-03-03T06:30:17.167Z,0
2023-03-03T06:31:14.088Z,0
2023-03-03T06:32:14.990Z,0
2023-03-03T06:33:14.069Z,0
2023-03-03T06:34:14.100Z,0
2023-03-03T06:35:13.934Z,0
2023-03-03T06:36:17.927Z,0
2023-03-03T06:37:14.134Z,0
2023-03-03T06:38:14.055Z,0
2023-03-03T06:39:14.140Z,0
2023-03-03T06:40:14.356Z,5
2023-03-03T06:41:16.897Z,5
2023-03-03T06:42:14.088Z,5
2023-03-03T06:43:14.109Z,5
2023-03-03T06:44:14.201Z,5
2023-03-03T06:45:14.072Z,5
2023-03-03T06:46:14.321Z,5
2023-03-03T06:47:17.219Z,5
2023-03-03T06:48:14.083Z,5
2023-03-03T06:49:14.099Z,5
2023-03-03T06:50:14.143Z,5
2023-03-03T06:51:14.112Z,5
2023-03-03T06:52:17.178Z,5
2023-03-03T06:53:14.132Z,5
2023-03-03T06:54:14.109Z,5
2023-03-03T06:55:14.234Z,5
2023-03-03T06:56:14.182Z,5
2023-03-03T06:57:14.227Z,5
2023-03-03T06:58:17.200Z,5
2023-03-03T06:59:14.136Z,10
2023-03-03T07:00:14.183Z,10
2023-03-03T07:01:14.365Z,10
2023-03-03T07:02:14.084Z,10
2023-03-03T07:03:16.971Z,10
2023-03-03T07:04:14.368Z,10
2023-03-03T07:05:14.178Z,10
2023-03-03T07:06:15.487Z,10
2023-03-03T07:07:14.159Z,10
2023-03-03T07:08:14.135Z,10
2023-03-03T07:09:16.979Z,10
2023-03-03T07:10:14.117Z,10
2023-03-03T07:11:14.165Z,10
2023-03-03T07:12:14.202Z,10
2023-03-03T07:13:14.220Z,10
2023-03-03T07:14:17.028Z,10
2023-03-03T07:15:14.234Z,10
2023-03-03T07:16:14.219Z,10
2023-03-03T07:17:14.155Z,10
2023-03-03T07:18:17.292Z,5
2023-03-03T07:19:14.181Z,5
2023-03-03T07:20:23.023Z,10
2023-03-03T07:21:14.120Z,10
2023-03-03T07:22:14.128Z,15
2023-03-03T07:23:14.207Z,10
2023-03-03T07:24:14.197Z,15
2023-03-03T07:25:20.319Z,30
2023-03-03T07:26:14.175Z,30
2023-03-03T07:27:13.993Z,20
2023-03-03T07:28:14.178Z,40
2023-03-03T07:29:14.245Z,25
2023-03-03T07:30:14.169Z,30
2023-03-03T07:31:15.515Z,40
2023-03-03T07:32:14.436Z,30
2023-03-03T07:33:15.148Z,50
2023-03-03T07:34:14.204Z,55
2023-03-03T07:35:14.194Z,55
2023-03-03T07:36:16.956Z,60
2023-03-03T07:37:14.220Z,60
2023-03-03T07:38:14.795Z,60
2023-03-03T07:39:14.210Z,60
2023-03-03T07:40:14.282Z,60
2023-03-03T07:41:14.207Z,60
2023-03-03T07:42:17.029Z,60
2023-03-03T07:43:14.354Z,60
2023-03-03T07:44:14.268Z,65
2023-03-03T07:45:14.373Z,65
2023-03-03T07:46:14.503Z,65
2023-03-03T07:47:17.295Z,30
2023-03-03T07:48:13.994Z,25
2023-03-03T07:49:14.243Z,25
2023-03-03T07:50:14.213Z,20
2023-03-03T07:51:14.328Z,20
2023-03-03T07:52:14.240Z,20
2023-03-03T07:53:14.207Z,20
2023-03-03T07:54:14.240Z,25
2023-03-03T07:55:14.224Z,25
2023-03-03T07:56:14.386Z,30
2023-03-03T07:57:14.245Z,25
2023-03-03T07:58:17.169Z,30
2023-03-03T07:59:14.248Z,25
2023-03-03T08:00:14.293Z,25
2023-03-03T08:01:14.279Z,30
2023-03-03T08:02:14.232Z,35
2023-03-03T08:03:17.316Z,35
2023-03-03T08:04:14.955Z,35
2023-03-03T08:05:15.468Z,35
2023-03-03T08:06:14.259Z,40
2023-03-03T08:07:14.052Z,40
2023-03-03T08:08:14.299Z,50
2023-03-03T08:09:14.394Z,50
2023-03-03T08:10:14.530Z,60
2023-03-03T08:11:14.084Z,60
2023-03-03T08:12:14.281Z,55
2023-03-03T08:13:14.191Z,35
2023-03-03T08:14:15.716Z,40
2023-03-03T08:15:14.101Z,40
2023-03-03T08:16:14.847Z,40
2023-03-03T08:17:14.309Z,40
2023-03-03T08:18:14.227Z,40
2023-03-03T08:19:14.298Z,35
2023-03-03T08:20:14.252Z,35
2023-03-03T08:21:14.229Z,35
2023-03-03T08:22:14.230Z,40
2023-03-03T08:23:14.323Z,40
2023-03-03T08:24:14.301Z,40
2023-03-03T08:25:17.224Z,35
2023-03-03T08:26:14.929Z,40
2023-03-03T08:27:14.324Z,40
2023-03-03T08:28:14.254Z,35
2023-03-03T08:29:14.309Z,40
2023-03-03T08:30:17.196Z,40
2023-03-03T08:31:47.155Z,35
2023-03-03T08:32:14.902Z,40
2023-03-03T08:33:14.131Z,40
2023-03-03T08:34:14.304Z,40
2023-03-03T08:35:14.339Z,30
2023-03-03T08:36:18.352Z,25
2023-03-03T08:37:14.272Z,25
2023-03-03T08:38:14.303Z,25
2023-03-03T08:39:14.389Z,25
2023-03-03T08:40:14.315Z,30
2023-03-03T08:41:17.056Z,35
2023-03-03T08:42:16.327Z,30
2023-03-03T08:43:14.403Z,40
2023-03-03T08:44:14.331Z,35
2023-03-03T08:45:14.301Z,30
2023-03-03T08:46:17.495Z,30
2023-03-03T08:47:14.344Z,25
2023-03-03T08:48:15.421Z,30
2023-03-03T08:49:14.310Z,30
2023-03-03T08:50:14.400Z,25
2023-03-03T08:51:14.308Z,35
2023-03-03T08:52:17.046Z,35
2023-03-03T08:53:14.312Z,40
2023-03-03T08:54:14.302Z,55
2023-03-03T08:55:16.145Z,65
2023-03-03T08:56:14.572Z,70
2023-03-03T08:57:17.298Z,80
2023-03-03T08:58:14.282Z,80
2023-03-03T08:59:14.468Z,80
2023-03-03T09:00:14.349Z,75
2023-03-03T09:01:14.518Z,75
2023-03-03T09:02:14.638Z,80
2023-03-03T09:03:17.690Z,80
2023-03-03T09:04:14.763Z,80
2023-03-03T09:05:14.351Z,80
2023-03-03T09:06:14.359Z,80
2023-03-03T09:07:14.372Z,80
2023-03-03T09:08:17.356Z,80
2023-03-03T09:09:14.333Z,80
2023-03-03T09:10:14.332Z,75
2023-03-03T09:11:14.311Z,80
2023-03-03T09:12:14.285Z,80
2023-03-03T09:13:16.270Z,80
2023-03-03T09:14:15.499Z,80
2023-03-03T09:15:14.329Z,85
2023-03-03T09:16:15.574Z,80
2023-03-03T09:17:14.386Z,85
2023-03-03T09:18:14.360Z,80
2023-03-03T09:19:17.215Z,80
2023-03-03T09:20:14.415Z,80
2023-03-03T09:21:14.326Z,80
2023-03-03T09:22:14.352Z,80
2023-03-03T09:23:14.321Z,80
2023-03-03T09:24:14.343Z,80
2023-03-03T09:25:17.058Z,80
2023-03-03T09:26:14.333Z,80
2023-03-03T09:27:14.502Z,80
2023-03-03T09:28:14.316Z,80
2023-03-03T09:29:14.430Z,80
2023-03-03T09:30:17.355Z,80
2023-03-03T09:31:20.155Z,80
2023-03-03T09:32:14.815Z,80
2023-03-03T09:33:14.406Z,85
2023-03-03T09:34:14.385Z,85
2023-03-03T09:35:14.366Z,80
2023-03-03T09:36:17.447Z,80
2023-03-03T09:37:19.617Z,80
2023-03-03T09:38:14.318Z,80
2023-03-03T09:39:14.482Z,80
2023-03-03T09:40:14.320Z,80
2023-03-03T09:41:17.105Z,80
2023-03-03T09:42:14.428Z,80
2023-03-03T09:43:14.382Z,80
2023-03-03T09:44:14.441Z,80
2023-03-03T09:45:14.499Z,80
2023-03-03T09:46:14.467Z,80
2023-03-03T09:47:17.635Z,80
2023-03-03T09:48:14.385Z,80
2023-03-03T09:49:14.436Z,80
2023-03-03T09:50:14.441Z,80
2023-03-03T09:51:14.469Z,80
2023-03-03T09:52:17.697Z,80
2023-03-03T09:53:14.355Z,80
2023-03-03T09:54:14.469Z,80
2023-03-03T09:55:14.340Z,80
2023-03-03T09:56:14.432Z,80
2023-03-03T09:57:14.347Z,80
2023-03-03T09:58:23.466Z,80
2023-03-03T09:59:18.440Z,80
2023-03-03T10:00:14.387Z,80
2023-03-03T10:01:14.233Z,80
2023-03-03T10:02:15.662Z,80
2023-03-03T10:03:18.452Z,80
2023-03-03T10:04:14.739Z,80
2023-03-03T10:05:16.700Z,80
2023-03-03T10:06:14.406Z,80
2023-03-03T10:07:14.436Z,80
2023-03-03T10:08:14.437Z,80
2023-03-03T10:09:17.170Z,80
2023-03-03T10:10:14.413Z,80
2023-03-03T10:11:14.389Z,80
2023-03-03T10:12:15.860Z,80
2023-03-03T10:13:14.515Z,80
2023-03-03T10:14:18.877Z,80
2023-03-03T10:15:14.435Z,80
2023-03-03T10:16:14.678Z,80
2023-03-03T10:17:14.450Z,80
2023-03-03T10:18:14.473Z,80
2023-03-03T10:19:14.459Z,80
2023-03-03T10:20:14.543Z,80
2023-03-03T10:21:14.455Z,80
2023-03-03T10:22:14.494Z,75
2023-03-03T10:23:14.489Z,80
2023-03-03T10:24:14.440Z,80
2023-03-03T10:25:17.337Z,75
2023-03-03T10:26:14.448Z,75
2023-03-03T10:27:22.656Z,75
2023-03-03T10:28:14.489Z,75
2023-03-03T10:29:14.543Z,75
2023-03-03T10:30:15.726Z,75
2023-03-03T10:31:30.896Z,75
2023-03-03T10:32:15.932Z,75
2023-03-03T10:33:16.118Z,75
2023-03-03T10:34:14.474Z,75
2023-03-03T10:35:15.155Z,75
2023-03-03T10:36:17.940Z,75
2023-03-03T10:37:14.466Z,75
2023-03-03T10:38:14.454Z,75
2023-03-03T10:39:14.516Z,75
2023-03-03T10:40:14.540Z,75
2023-03-03T10:41:15.437Z,75
2023-03-03T10:42:14.446Z,75
2023-03-03T10:43:33.497Z,75
2023-03-03T10:44:14.458Z,75
2023-03-03T10:45:14.598Z,75
2023-03-03T10:46:14.762Z,75
2023-03-03T10:47:14.474Z,75
2023-03-03T10:48:14.623Z,75
2023-03-03T10:49:14.548Z,75
2023-03-03T10:50:14.497Z,75
2023-03-03T10:51:14.530Z,75
2023-03-03T10:52:17.307Z,75
2023-03-03T10:53:14.515Z,70
2023-03-03T10:54:14.287Z,70
2023-03-03T10:55:14.583Z,70
2023-03-03T10:56:14.519Z,70
2023-03-03T10:57:15.622Z,70
2023-03-03T10:58:14.466Z,70
2023-03-03T10:59:14.449Z,70
2023-03-03T11:00:14.525Z,65
2023-03-03T11:01:14.724Z,65
2023-03-03T11:02:14.478Z,65
2023-03-03T11:03:14.504Z,70
2023-03-03T11:04:14.802Z,65
2023-03-03T11:05:14.624Z,65
2023-03-03T11:06:14.542Z,65
2023-03-03T11:07:16.364Z,65
2023-03-03T11:08:17.421Z,65
2023-03-03T11:09:14.366Z,60
2023-03-03T11:10:14.562Z,60
2023-03-03T11:11:14.575Z,60
2023-03-03T11:12:14.548Z,60
2023-03-03T11:13:17.699Z,60
2023-03-03T11:14:14.534Z,60
2023-03-03T11:15:14.682Z,60
2023-03-03T11:16:14.652Z,60
2023-03-03T11:17:14.765Z,60
2023-03-03T11:18:14.532Z,55
2023-03-03T11:19:17.608Z,55
2023-03-03T11:20:14.525Z,55
2023-03-03T11:21:14.545Z,55
2023-03-03T11:22:14.583Z,55
2023-03-03T11:23:14.669Z,55
2023-03-03T11:24:18.724Z,55
2023-03-03T11:25:14.939Z,55
2023-03-03T11:26:14.538Z,55
2023-03-03T11:27:15.133Z,55
2023-03-03T11:28:14.554Z,55
2023-03-03T11:29:14.552Z,55
2023-03-03T11:30:17.411Z,55
2023-03-03T11:31:14.961Z,55
2023-03-03T11:32:14.898Z,55
2023-03-03T11:33:14.560Z,55
2023-03-03T11:34:14.669Z,55
2023-03-03T11:35:17.293Z,55
2023-03-03T11:36:14.691Z,55
2023-03-03T11:37:14.566Z,55
2023-03-03T11:38:14.633Z,55
2023-03-03T11:39:14.631Z,55
2023-03-03T11:40:14.627Z,55
2023-03-03T11:41:15.592Z,55
2023-03-03T11:42:14.572Z,50
2023-03-03T11:43:23.309Z,50
2023-03-03T11:44:14.629Z,50
2023-03-03T11:45:14.637Z,50
2023-03-03T11:46:18.956Z,50
2023-03-03T11:47:14.641Z,55
2023-03-03T11:48:14.571Z,50
2023-03-03T11:49:14.609Z,50
2023-03-03T11:50:14.647Z,50
2023-03-03T11:51:14.565Z,50
2023-03-03T11:52:17.659Z,50
2023-03-03T11:53:14.603Z,50
2023-03-03T11:54:14.565Z,50
2023-03-03T11:55:14.860Z,45
2023-03-03T11:56:14.686Z,45
2023-03-03T11:57:17.698Z,45
2023-03-03T11:58:14.606Z,45
2023-03-03T11:59:14.670Z,45
2023-03-03T12:00:14.663Z,50
2023-03-03T12:01:14.694Z,45
2023-03-03T12:02:14.860Z,45
2023-03-03T12:03:17.353Z,45
2023-03-03T12:04:14.599Z,45
2023-03-03T12:05:14.681Z,45
2023-03-03T12:06:17.628Z,45
2023-03-03T12:07:27.066Z,45
2023-03-03T12:08:17.687Z,45
2023-03-03T12:09:14.685Z,45
2023-03-03T12:10:14.662Z,45
2023-03-03T12:11:14.695Z,45
2023-03-03T12:12:14.639Z,45
2023-03-03T12:13:14.640Z,45
2023-03-03T12:14:17.695Z,40
2023-03-03T12:15:14.737Z,40
2023-03-03T12:16:14.921Z,40
2023-03-03T12:17:14.604Z,40
2023-03-03T12:18:14.594Z,40
2023-03-03T12:19:17.358Z,40
2023-03-03T12:20:14.707Z,40
2023-03-03T12:21:14.609Z,40
2023-03-03T12:22:14.769Z,40
2023-03-03T12:23:16.564Z,40
2023-03-03T12:24:14.605Z,40
2023-03-03T12:25:17.545Z,40
2023-03-03T12:26:14.617Z,40
2023-03-03T12:27:14.620Z,40
2023-03-03T12:28:14.663Z,40
2023-03-03T12:29:16.911Z,40
2023-03-03T12:30:17.557Z,40
2023-03-03T12:31:14.993Z,40
2023-03-03T12:32:14.955Z,40
2023-03-03T12:33:14.631Z,40
2023-03-03T12:34:14.655Z,40
2023-03-03T12:35:14.688Z,40
2023-03-03T12:36:17.414Z,40
2023-03-03T12:37:14.706Z,40
2023-03-03T12:38:14.646Z,40
2023-03-03T12:39:22.392Z,40
2023-03-03T12:40:14.640Z,40
2023-03-03T12:41:17.949Z,40
2023-03-03T12:42:14.673Z,40
2023-03-03T12:43:14.726Z,40
2023-03-03T12:44:14.677Z,40
2023-03-03T12:45:14.710Z,40
2023-03-03T12:46:14.892Z,40
2023-03-03T12:47:14.883Z,40
2023-03-03T12:48:14.692Z,40
2023-03-03T12:49:14.673Z,40
2023-03-03T12:50:17.581Z,35
2023-03-03T12:51:14.728Z,40
2023-03-03T12:52:15.748Z,35
2023-03-03T12:53:19.189Z,35
2023-03-03T12:54:14.742Z,40
2023-03-03T12:55:14.684Z,35
2023-03-03T12:56:14.757Z,35
2023-03-03T12:57:17.529Z,35
2023-03-03T12:58:14.714Z,35
2023-03-03T12:59:16.522Z,35
2023-03-03T13:00:14.720Z,35
2023-03-03T13:01:15.160Z,35
2023-03-03T13:02:14.708Z,35
2023-03-03T13:03:14.973Z,35
2023-03-03T13:04:15.237Z,35
2023-03-03T13:05:14.741Z,35
2023-03-03T13:06:14.759Z,35
2023-03-03T13:07:14.682Z,35
2023-03-03T13:08:20.824Z,35
2023-03-03T13:09:14.716Z,35
2023-03-03T13:10:14.746Z,35
2023-03-03T13:11:14.712Z,35
2023-03-03T13:12:14.764Z,35
2023-03-03T13:13:14.513Z,35
2023-03-03T13:14:14.738Z,35
2023-03-03T13:15:18.334Z,35
2023-03-03T13:16:29.115Z,35
2023-03-03T13:17:15.010Z,35
2023-03-03T13:18:14.715Z,35
2023-03-03T13:19:17.532Z,35
2023-03-03T13:20:14.771Z,35
2023-03-03T13:21:14.765Z,35
2023-03-03T13:22:14.732Z,35
2023-03-03T13:23:14.742Z,35
2023-03-03T13:24:17.787Z,35
2023-03-03T13:25:14.835Z,35
2023-03-03T13:26:14.742Z,35
2023-03-03T13:27:14.730Z,35
2023-03-03T13:28:14.763Z,35
2023-03-03T13:29:14.731Z,35
2023-03-03T13:30:17.530Z,35
2023-03-03T13:31:15.130Z,35
2023-03-03T13:32:14.924Z,35
2023-03-03T13:33:14.713Z,35
2023-03-03T13:34:14.778Z,35
2023-03-03T13:35:17.847Z,35
2023-03-03T13:36:14.807Z,35
2023-03-03T13:37:14.744Z,35
2023-03-03T13:38:14.745Z,35
2023-03-03T13:39:14.763Z,35
2023-03-03T13:40:18.239Z,35
2023-03-03T13:41:17.878Z,35
2023-03-03T13:42:14.775Z,35
2023-03-03T13:43:14.795Z,35
2023-03-03T13:44:14.996Z,35
2023-03-03T13:45:14.794Z,35
2023-03-03T13:46:17.943Z,35
2023-03-03T13:47:14.782Z,35
2023-03-03T13:48:14.829Z,35
2023-03-03T13:49:15.021Z,35
2023-03-03T13:50:14.856Z,35
2023-03-03T13:51:17.929Z,35
2023-03-03T13:52:14.767Z,35
2023-03-03T13:53:14.667Z,35
2023-03-03T13:54:14.874Z,35
2023-03-03T13:55:14.882Z,35
2023-03-03T13:56:14.800Z,35
2023-03-03T13:57:19.051Z,35
2023-03-03T13:58:14.780Z,35
2023-03-03T13:59:14.769Z,35
2023-03-03T14:00:14.830Z,35
2023-03-03T14:01:15.292Z,35
2023-03-03T14:02:17.726Z,35
2023-03-03T14:03:14.807Z,35
2023-03-03T14:04:15.202Z,35
2023-03-03T14:05:15.058Z,35
2023-03-03T14:06:14.865Z,35
2023-03-03T14:07:15.185Z,35
2023-03-03T14:08:17.605Z,35
2023-03-03T14:09:14.821Z,35
2023-03-03T14:10:14.847Z,35
2023-03-03T14:11:14.845Z,35
2023-03-03T14:12:14.855Z,35
2023-03-03T14:13:18.126Z,35
2023-03-03T14:14:14.860Z,35
2023-03-03T14:15:14.905Z,35
2023-03-03T14:16:15.086Z,35
2023-03-03T14:17:14.812Z,35
2023-03-03T14:18:14.873Z,30
2023-03-03T14:19:17.636Z,30
2023-03-03T14:20:14.813Z,30
2023-03-03T14:21:14.853Z,30
2023-03-03T14:22:14.878Z,30
2023-03-03T14:23:14.928Z,30
2023-03-03T14:24:18.020Z,30
2023-03-03T14:25:14.953Z,30
2023-03-03T14:26:14.907Z,35
2023-03-03T14:27:15.053Z,35
2023-03-03T14:28:14.717Z,35
2023-03-03T14:29:14.814Z,35
2023-03-03T14:30:17.615Z,35